createdAt,value
2018-11-06T00:00:12.981Z,4.90
2018-11-06T00:02:41.842Z,4.80
2018-11-06T00:05:12.758Z,4.80
2018-11-06T00:07:41.759Z,4.90
2018-11-06T00:10:10.326Z,4.80
2018-11-06T00:12:39.319Z,4.80
2018-11-06T00:15:08.715Z,4.80
2018-11-06T00:17:37.823Z,4.80
2018-11-06T00:20:08.567Z,4.90
2018-11-06T00:22:37.650Z,4.90
2018-11-06T00:25:07.355Z,5.00
2018-11-06T00:27:36.136Z,5.00
2018-11-06T00:30:05.684Z,5.00
2018-11-06T00:32:34.082Z,4.80
2018-11-06T00:35:03.607Z,4.60
2018-11-06T00:37:32.795Z,4.40
2018-11-06T00:40:01.428Z,4.20
2018-11-06T00:42:29.810Z,4.30
2018-11-06T00:44:58.374Z,4.30
2018-11-06T00:47:26.775Z,4.30
2018-11-06T00:49:55.723Z,4.30
2018-11-06T00:52:24.134Z,4.30
2018-11-06T00:54:52.506Z,4.40
2018-11-06T00:57:20.866Z,4.40
2018-11-06T00:59:50.460Z,4.40
2018-11-06T01:02:19.330Z,4.40
2018-11-06T01:04:47.730Z,4.40
2018-11-06T01:07:16.445Z,4.30
2018-11-06T01:09:45.131Z,4.30
2018-11-06T01:12:13.498Z,4.30
2018-11-06T01:14:41.879Z,4.30
2018-11-06T01:17:10.524Z,4.40
2018-11-06T01:19:39.867Z,4.40
2018-11-06T01:22:08.274Z,4.40
2018-11-06T01:24:36.915Z,4.30
2018-11-06T01:27:06.058Z,4.30
2018-11-06T01:29:34.434Z,4.30
2018-11-06T01:32:03.174Z,4.20
2018-11-06T01:34:31.557Z,4.00
2018-11-06T01:37:00.164Z,3.80
2018-11-06T01:39:28.547Z,3.70
2018-11-06T01:41:56.933Z,3.70
2018-11-06T01:44:25.331Z,3.70
2018-11-06T01:46:53.710Z,3.80
2018-11-06T01:49:22.391Z,3.80
2018-11-06T01:51:51.110Z,3.90
2018-11-06T01:54:20.014Z,3.90
2018-11-06T01:56:49.114Z,3.90
2018-11-06T01:59:17.468Z,3.70
2018-11-06T02:01:46.219Z,3.80
2018-11-06T02:04:14.621Z,3.80
2018-11-06T02:06:43.031Z,3.90
2018-11-06T02:09:11.432Z,3.80
2018-11-06T02:11:39.794Z,3.70
2018-11-06T02:14:08.486Z,3.70
2018-11-06T02:16:36.874Z,3.80
2018-11-06T02:19:05.618Z,3.80
2018-11-06T02:21:34.270Z,3.80
2018-11-06T02:24:03.679Z,3.80
2018-11-06T02:26:32.306Z,3.80
2018-11-06T02:29:00.990Z,3.70
2018-11-06T02:31:29.380Z,3.70
2018-11-06T02:33:58.547Z,3.60
2018-11-06T02:36:27.188Z,3.60
2018-11-06T02:41:31.175Z,3.60
2018-11-06T02:43:59.858Z,3.60
2018-11-06T02:46:28.751Z,3.40
2018-11-06T02:48:57.129Z,3.40
2018-11-06T02:51:25.566Z,3.40
2018-11-06T02:53:54.404Z,3.50
2018-11-06T02:56:22.831Z,3.50
2018-11-06T02:58:51.215Z,3.40
2018-11-06T03:01:19.619Z,3.30
2018-11-06T03:03:48.007Z,3.20
2018-11-06T03:06:16.908Z,3.20
2018-11-06T03:08:47.074Z,3.10
2018-11-06T03:11:15.735Z,3.10
2018-11-06T03:13:44.115Z,3.10
2018-11-06T03:16:12.730Z,3.00
2018-11-06T03:18:41.114Z,3.10
2018-11-06T03:21:11.738Z,3.20
2018-11-06T03:23:41.102Z,3.20
2018-11-06T03:26:11.055Z,3.30
2018-11-06T03:28:39.787Z,3.30
2018-11-06T03:31:08.191Z,3.30
2018-11-06T03:33:36.579Z,3.30
2018-11-06T03:36:05.787Z,3.30
2018-11-06T03:38:34.195Z,3.40
2018-11-06T03:41:02.727Z,3.30
2018-11-06T03:43:31.190Z,3.30
2018-11-06T03:45:59.622Z,3.30
2018-11-06T03:48:28.550Z,3.30
2018-11-06T03:50:58.155Z,3.20
2018-11-06T03:53:27.047Z,3.10
2018-11-06T03:55:55.941Z,2.90
2018-11-06T03:58:24.666Z,2.90
2018-11-06T04:00:53.356Z,2.80
2018-11-06T04:03:21.995Z,2.70
2018-11-06T04:05:50.410Z,2.60
2018-11-06T04:08:19.710Z,2.60
2018-11-06T04:10:48.082Z,2.50
2018-11-06T04:13:16.450Z,2.60
2018-11-06T04:15:45.115Z,2.70
2018-11-06T04:18:14.115Z,2.80
2018-11-06T04:20:42.487Z,2.80
2018-11-06T04:23:11.256Z,2.90
2018-11-06T04:25:39.934Z,2.80
2018-11-06T04:28:08.337Z,2.80
2018-11-06T04:30:36.739Z,2.80
2018-11-06T04:33:05.812Z,2.90
2018-11-06T04:35:34.467Z,2.90
2018-11-06T04:38:02.875Z,2.80
2018-11-06T04:40:31.279Z,2.90
2018-11-06T04:42:59.743Z,2.90
2018-11-06T04:45:28.367Z,2.80
2018-11-06T04:47:56.719Z,2.90
2018-11-06T04:50:25.746Z,2.90
2018-11-06T04:52:54.168Z,2.80
2018-11-06T04:55:23.271Z,2.80
2018-11-06T04:57:51.682Z,2.80
2018-11-06T05:00:20.379Z,2.90
2018-11-06T05:02:48.815Z,2.80
2018-11-06T05:05:17.442Z,2.70
2018-11-06T05:07:46.387Z,2.60
2018-11-06T05:10:15.402Z,2.70
2018-11-06T05:12:44.079Z,2.70
2018-11-06T05:15:14.010Z,2.60
2018-11-06T05:17:42.414Z,2.70
2018-11-06T05:20:14.847Z,2.60
2018-11-06T05:22:44.774Z,2.60
2018-11-06T05:25:13.191Z,2.60
2018-11-06T05:27:41.842Z,2.50
2018-11-06T05:30:11.239Z,2.50
2018-11-06T05:32:40.985Z,2.60
2018-11-06T05:35:10.049Z,2.60
2018-11-06T05:37:39.419Z,2.70
2018-11-06T05:40:21.146Z,2.70
2018-11-06T05:42:49.891Z,2.70
2018-11-06T05:45:18.874Z,2.80
2018-11-06T05:47:47.518Z,3.00
2018-11-06T05:50:16.331Z,3.10
2018-11-06T05:52:45.378Z,3.10
2018-11-06T05:55:13.814Z,3.20
2018-11-06T05:57:42.215Z,3.10
2018-11-06T06:00:10.795Z,2.60
2018-11-06T06:02:39.636Z,2.30
2018-11-06T06:05:08.487Z,2.30
2018-11-06T06:07:37.191Z,2.40
2018-11-06T06:10:06.403Z,2.50
2018-11-06T06:12:35.250Z,2.60
2018-11-06T06:15:04.832Z,2.70
2018-11-06T06:17:33.483Z,2.80
2018-11-06T06:20:01.855Z,2.90
2018-11-06T06:22:30.336Z,2.80
2018-11-06T06:24:58.703Z,2.80
2018-11-06T06:27:28.252Z,2.70
2018-11-06T06:29:56.615Z,2.70
2018-11-06T06:32:25.303Z,2.70
2018-11-06T06:34:53.911Z,2.80
2018-11-06T06:37:22.412Z,2.90
2018-11-06T06:39:50.832Z,3.00
2018-11-06T06:42:19.301Z,3.30
2018-11-06T06:44:48.282Z,3.30
2018-11-06T06:47:17.099Z,3.30
2018-11-06T06:49:45.570Z,3.30
2018-11-06T06:52:14.179Z,3.40
2018-11-06T06:54:42.661Z,3.40
2018-11-06T06:57:11.081Z,3.60
2018-11-06T06:59:39.459Z,3.70
2018-11-06T07:02:08.224Z,3.80
2018-11-06T07:04:36.617Z,3.90
2018-11-06T07:07:05.192Z,3.90
2018-11-06T07:09:34.010Z,4.00
2018-11-06T07:12:02.391Z,4.10
2018-11-06T07:14:30.867Z,4.30
2018-11-06T07:16:59.234Z,4.40
2018-11-06T07:19:28.155Z,4.50
2018-11-06T07:21:56.806Z,4.60
2018-11-06T07:24:25.331Z,4.70
2018-11-06T07:26:54.129Z,4.90
2018-11-06T07:29:23.548Z,5.10
2018-11-06T07:31:52.703Z,5.20
2018-11-06T07:34:22.424Z,5.30
2018-11-06T07:36:51.595Z,5.40
2018-11-06T07:39:20.604Z,5.60
2018-11-06T07:41:49.015Z,5.70
2018-11-06T07:44:17.375Z,5.80
2018-11-06T07:46:45.926Z,6.00
2018-11-06T07:49:15.829Z,6.20
2018-11-06T07:51:44.719Z,6.20
2018-11-06T07:54:14.924Z,6.50
2018-11-06T07:56:44.163Z,6.90
2018-11-06T07:59:13.647Z,7.10
2018-11-06T08:01:42.602Z,7.40
2018-11-06T08:04:11.867Z,7.70
2018-11-06T08:06:40.204Z,7.90
2018-11-06T08:09:10.545Z,8.10
2018-11-06T08:11:40.851Z,8.40
2018-11-06T08:14:09.490Z,8.70
2018-11-06T08:16:38.132Z,8.90
2018-11-06T08:19:07.068Z,9.20
2018-11-06T08:21:36.696Z,9.30
2018-11-06T08:24:05.863Z,9.50
2018-11-06T08:26:35.194Z,9.90
2018-11-06T08:29:04.842Z,10.20
2018-11-06T08:31:34.274Z,10.60
2018-11-06T08:34:03.662Z,11.00
2018-11-06T08:36:33.194Z,11.40
2018-11-06T08:39:02.283Z,11.70
2018-11-06T08:41:31.451Z,11.90
2018-11-06T08:44:00.526Z,12.30
2018-11-06T08:46:30.132Z,12.80
2018-11-06T08:48:58.886Z,13.00
2018-11-06T08:51:27.295Z,13.20
2018-11-06T08:53:56.829Z,13.50
2018-11-06T08:56:26.903Z,13.90
2018-11-06T08:58:55.267Z,14.20
2018-11-06T09:01:23.683Z,14.60
2018-11-06T09:03:52.324Z,14.90
2018-11-06T09:06:21.042Z,14.90
2018-11-06T09:08:49.708Z,15.00
2018-11-06T09:11:18.325Z,15.30
2018-11-06T09:13:46.797Z,15.70
2018-11-06T09:16:15.238Z,16.00
2018-11-06T09:18:44.342Z,16.30
2018-11-06T09:21:12.739Z,16.10
2018-11-06T09:23:42.563Z,15.80
2018-11-06T09:26:10.914Z,16.00
2018-11-06T09:28:40.075Z,15.80
2018-11-06T09:31:09.371Z,15.70
2018-11-06T09:33:38.592Z,15.50
2018-11-06T09:36:07.964Z,15.50
2018-11-06T09:38:37.093Z,15.40
2018-11-06T09:41:05.924Z,15.20
2018-11-06T09:43:35.076Z,15.20
2018-11-06T09:46:03.492Z,15.20
2018-11-06T09:48:33.211Z,14.60
2018-11-06T09:51:01.674Z,14.50
2018-11-06T09:53:30.941Z,14.80
2018-11-06T09:56:00.026Z,15.00
2018-11-06T09:58:29.126Z,14.90
2018-11-06T10:00:57.980Z,15.00
2018-11-06T10:03:27.162Z,15.50
2018-11-06T10:05:55.583Z,15.70
2018-11-06T10:08:24.259Z,15.90
2018-11-06T10:10:53.635Z,15.70
2018-11-06T10:13:22.719Z,16.00
2018-11-06T10:15:52.267Z,16.20
2018-11-06T10:18:21.331Z,16.50
2018-11-06T10:20:49.791Z,16.70
2018-11-06T10:23:18.706Z,16.70
2018-11-06T10:25:47.089Z,16.70
2018-11-06T10:28:15.695Z,16.70
2018-11-06T10:30:44.637Z,16.70
2018-11-06T10:33:13.179Z,17.00
2018-11-06T10:35:41.787Z,16.90
2018-11-06T10:38:10.623Z,16.50
2018-11-06T10:40:39.706Z,16.70
2018-11-06T10:43:08.231Z,16.70
2018-11-06T10:45:36.919Z,16.30
2018-11-06T10:48:05.938Z,16.50
2018-11-06T10:50:34.572Z,16.70
2018-11-06T10:53:03.706Z,16.70
2018-11-06T10:55:32.684Z,16.80
2018-11-06T10:58:01.723Z,16.70
2018-11-06T11:00:35.319Z,16.80
2018-11-06T11:03:09.337Z,16.80
2018-11-06T11:05:37.727Z,16.80
2018-11-06T11:08:06.418Z,16.10
2018-11-06T11:10:35.271Z,16.30
2018-11-06T11:13:04.031Z,16.10
2018-11-06T11:15:33.930Z,16.10
2018-11-06T11:18:02.892Z,16.10
2018-11-06T11:20:31.253Z,16.40
2018-11-06T11:22:59.653Z,16.70
2018-11-06T11:25:28.035Z,16.90
2018-11-06T11:27:56.431Z,17.20
2018-11-06T11:30:24.865Z,17.40
2018-11-06T11:32:53.222Z,17.50
2018-11-06T11:35:21.627Z,17.90
2018-11-06T11:37:50.437Z,18.00
2018-11-06T11:40:19.774Z,18.00
2018-11-06T11:42:48.511Z,18.10
2018-11-06T11:45:17.522Z,18.20
2018-11-06T11:47:45.910Z,18.20
2018-11-06T11:50:15.521Z,18.40
2018-11-06T11:52:44.221Z,18.60
2018-11-06T11:55:12.676Z,18.60
2018-11-06T11:57:41.595Z,18.70
2018-11-06T12:00:12.732Z,18.90
2018-11-06T12:02:41.233Z,18.90
2018-11-06T12:05:10.723Z,18.80
2018-11-06T12:07:39.116Z,19.00
2018-11-06T12:10:10.429Z,19.00
2018-11-06T12:12:38.999Z,19.10
2018-11-06T12:15:10.954Z,19.00
2018-11-06T12:17:39.463Z,18.90
2018-11-06T12:20:07.875Z,18.90
2018-11-06T12:22:37.212Z,18.90
2018-11-06T12:25:06.662Z,19.00
2018-11-06T12:27:35.080Z,18.90
2018-11-06T12:30:05.774Z,19.00
2018-11-06T12:32:34.187Z,19.00
2018-11-06T12:35:02.594Z,19.10
2018-11-06T12:37:31.072Z,19.10
2018-11-06T12:39:59.702Z,19.10
2018-11-06T12:42:28.447Z,19.00
2018-11-06T12:44:56.943Z,18.90
2018-11-06T12:47:25.965Z,18.90
2018-11-06T12:49:55.253Z,18.90
2018-11-06T12:52:23.907Z,19.00
2018-11-06T12:54:52.407Z,19.00
2018-11-06T12:57:20.834Z,19.00
2018-11-06T12:59:49.239Z,19.10
2018-11-06T13:02:17.627Z,19.10
2018-11-06T13:04:46.306Z,19.00
2018-11-06T13:07:15.039Z,19.10
2018-11-06T13:09:43.450Z,19.20
2018-11-06T13:12:12.003Z,19.20
2018-11-06T13:14:40.438Z,19.30
2018-11-06T13:17:09.143Z,19.40
2018-11-06T13:19:37.411Z,19.30
2018-11-06T13:22:07.287Z,19.40
2018-11-06T13:24:35.985Z,19.50
2018-11-06T13:27:04.687Z,19.40
2018-11-06T13:29:33.078Z,19.40
2018-11-06T13:32:01.483Z,19.50
2018-11-06T13:34:29.915Z,19.60
2018-11-06T13:36:58.552Z,19.40
2018-11-06T13:39:27.045Z,19.40
2018-11-06T13:41:55.476Z,19.30
2018-11-06T13:44:24.774Z,19.20
2018-11-06T13:46:53.037Z,19.20
2018-11-06T13:49:22.026Z,19.30
2018-11-06T13:51:50.992Z,19.30
2018-11-06T13:54:19.346Z,19.30
2018-11-06T13:56:47.710Z,19.40
2018-11-06T13:59:16.111Z,19.50
2018-11-06T14:01:44.507Z,19.40
2018-11-06T14:04:12.899Z,19.30
2018-11-06T14:06:41.607Z,19.30
2018-11-06T14:09:11.127Z,19.40
2018-11-06T14:11:39.875Z,19.40
2018-11-06T14:14:08.411Z,19.40
2018-11-06T14:16:37.359Z,19.30
2018-11-06T14:19:06.072Z,19.20
2018-11-06T14:21:34.770Z,19.00
2018-11-06T14:24:03.199Z,18.90
2018-11-06T14:26:31.567Z,18.70
2018-11-06T14:28:59.958Z,18.60
2018-11-06T14:31:28.339Z,18.50
2018-11-06T14:33:56.998Z,18.40
2018-11-06T14:36:25.747Z,18.40
2018-11-06T14:38:54.115Z,18.40
2018-11-06T14:41:22.700Z,18.40
2018-11-06T14:43:52.083Z,18.30
2018-11-06T14:46:20.967Z,18.30
2018-11-06T14:48:49.789Z,18.10
2018-11-06T14:51:18.730Z,18.10
2018-11-06T14:53:47.180Z,18.10
2018-11-06T14:56:15.894Z,18.00
2018-11-06T14:58:44.615Z,17.80
2018-11-06T15:01:12.979Z,17.80
2018-11-06T15:03:41.368Z,17.70
2018-11-06T15:06:10.132Z,17.70
2018-11-06T15:08:38.524Z,17.50
2018-11-06T15:11:07.547Z,17.50
2018-11-06T15:13:36.427Z,17.50
2018-11-06T15:16:04.851Z,17.40
2018-11-06T15:18:33.543Z,17.40
2018-11-06T15:21:02.075Z,17.40
2018-11-06T15:23:30.633Z,17.40
2018-11-06T15:25:59.083Z,17.30
2018-11-06T15:28:27.459Z,17.30
2018-11-06T15:30:55.855Z,17.20
2018-11-06T15:33:24.247Z,17.10
2018-11-06T15:35:59.335Z,17.10
2018-11-06T15:38:27.794Z,17.00
2018-11-06T15:40:56.264Z,16.90
2018-11-06T15:43:24.602Z,16.90
2018-11-06T15:45:53.351Z,16.80
2018-11-06T15:48:21.748Z,16.80
2018-11-06T15:50:50.256Z,16.80
2018-11-06T15:53:18.607Z,16.70
2018-11-06T15:55:47.005Z,16.60
2018-11-06T15:58:15.390Z,16.50
2018-11-06T16:00:43.763Z,16.60
2018-11-06T16:03:18.987Z,16.50
2018-11-06T16:05:47.352Z,16.40
2018-11-06T16:08:16.097Z,16.30
2018-11-06T16:10:45.011Z,16.40
2018-11-06T16:13:13.386Z,16.30
2018-11-06T16:15:41.770Z,16.20
2018-11-06T16:18:10.158Z,16.10
2018-11-06T16:20:38.542Z,16.00
2018-11-06T16:23:06.931Z,15.80
2018-11-06T16:25:35.331Z,15.70
2018-11-06T16:28:03.859Z,15.50
2018-11-06T16:30:32.314Z,15.30
2018-11-06T16:33:01.034Z,15.10
2018-11-06T16:35:29.468Z,14.80
2018-11-06T16:37:57.923Z,14.60
2018-11-06T16:40:26.319Z,14.40
2018-11-06T16:42:54.739Z,14.20
2018-11-06T16:45:23.422Z,14.00
2018-11-06T16:47:52.454Z,13.70
2018-11-06T16:50:20.872Z,13.40
2018-11-06T16:52:49.538Z,13.10
2018-11-06T16:55:18.790Z,12.90
2018-11-06T16:57:47.240Z,12.80
2018-11-06T17:00:18.419Z,12.70
2018-11-06T17:02:46.910Z,12.60
2018-11-06T17:05:15.998Z,12.50
2018-11-06T17:07:45.502Z,12.40
2018-11-06T17:10:14.778Z,12.30
2018-11-06T17:12:43.226Z,12.20
2018-11-06T17:15:15.227Z,12.20
2018-11-06T17:17:44.245Z,12.10
2018-11-06T17:20:13.306Z,12.00
2018-11-06T17:22:42.034Z,11.90
2018-11-06T17:25:15.906Z,11.90
2018-11-06T17:27:44.345Z,11.80
2018-11-06T17:30:14.531Z,11.60
2018-11-06T17:32:43.250Z,11.60
2018-11-06T17:35:13.430Z,11.50
2018-11-06T17:37:42.406Z,11.50
2018-11-06T17:40:15.088Z,11.40
2018-11-06T17:42:43.962Z,11.40
2018-11-06T17:45:14.491Z,11.30
2018-11-06T17:47:43.383Z,11.30
2018-11-06T17:50:13.212Z,11.30
2018-11-06T17:52:41.603Z,11.20
2018-11-06T17:55:11.648Z,11.20
2018-11-06T17:57:40.382Z,11.10
2018-11-06T18:00:11.514Z,11.00
2018-11-06T18:02:40.452Z,11.00
2018-11-06T18:05:09.750Z,10.90
2018-11-06T18:07:38.543Z,10.80
2018-11-06T18:10:08.735Z,10.80
2018-11-06T18:12:37.195Z,10.70
2018-11-06T18:15:06.710Z,10.70
2018-11-06T18:17:35.226Z,10.70
2018-11-06T18:20:12.032Z,10.60
2018-11-06T18:22:41.847Z,10.60
2018-11-06T18:25:11.553Z,10.60
2018-11-06T18:27:40.793Z,10.50
2018-11-06T18:30:11.090Z,10.40
2018-11-06T18:32:43.837Z,10.40
2018-11-06T18:35:15.990Z,10.30
2018-11-06T18:37:49.659Z,10.20
2018-11-06T18:40:20.306Z,10.10
2018-11-06T18:42:49.807Z,9.90
2018-11-06T18:45:18.211Z,9.90
2018-11-06T18:47:46.697Z,9.80
2018-11-06T18:50:16.588Z,9.90
2018-11-06T18:52:46.803Z,9.90
2018-11-06T18:55:15.219Z,9.90
2018-11-06T18:57:44.099Z,9.90
2018-11-06T19:00:15.461Z,9.90
2018-11-06T19:02:55.559Z,9.90
2018-11-06T19:05:25.140Z,9.80
2018-11-06T19:07:53.747Z,9.80
2018-11-06T19:10:22.691Z,9.80
2018-11-06T19:12:51.337Z,9.70
2018-11-06T19:15:29.797Z,9.70
2018-11-06T19:17:58.804Z,9.80
2018-11-06T19:20:28.238Z,9.80
2018-11-06T19:22:56.950Z,9.80
2018-11-06T19:25:25.647Z,9.80
2018-11-06T19:27:54.954Z,9.70
2018-11-06T19:30:23.636Z,9.70
2018-11-06T19:32:52.119Z,9.60
2018-11-06T19:35:20.531Z,9.60
2018-11-06T19:37:48.987Z,9.50
2018-11-06T19:40:18.077Z,9.40
2018-11-06T19:42:47.524Z,9.40
2018-11-06T19:45:17.544Z,9.30
2018-11-06T19:47:46.257Z,9.20
2018-11-06T19:50:17.213Z,9.10
2018-11-06T19:52:47.350Z,9.00
2018-11-06T19:55:16.927Z,8.90
2018-11-06T19:57:45.402Z,8.80
2018-11-06T20:00:17.058Z,8.60
2018-11-06T20:02:46.675Z,8.70
2018-11-06T20:05:15.657Z,8.70
2018-11-06T20:07:44.868Z,8.40
2018-11-06T20:10:14.698Z,8.20
2018-11-06T20:12:44.072Z,8.30
2018-11-06T20:15:13.283Z,8.10
2018-11-06T20:17:42.392Z,8.20
2018-11-06T20:20:14.430Z,8.20
2018-11-06T20:22:43.979Z,8.20
2018-11-06T20:25:13.220Z,8.10
2018-11-06T20:27:42.638Z,8.10
2018-11-06T20:30:15.445Z,8.20
2018-11-06T20:32:44.178Z,8.20
2018-11-06T20:35:12.999Z,8.20
2018-11-06T20:37:41.451Z,8.20
2018-11-06T20:40:12.015Z,8.20
2018-11-06T20:42:40.871Z,8.20
2018-11-06T20:45:10.857Z,8.20
2018-11-06T20:47:39.990Z,8.20
2018-11-06T20:50:14.383Z,8.20
2018-11-06T20:52:43.171Z,8.20
2018-11-06T20:55:12.734Z,8.20
2018-11-06T20:57:41.136Z,8.20
2018-11-06T21:00:17.316Z,8.00
2018-11-06T21:02:46.067Z,7.80
2018-11-06T21:05:15.339Z,7.60
2018-11-06T21:07:44.246Z,7.40
2018-11-06T21:10:14.019Z,7.40
2018-11-06T21:12:42.697Z,7.50
2018-11-06T21:15:11.731Z,7.50
2018-11-06T21:17:40.192Z,7.40
2018-11-06T21:20:10.046Z,7.40
2018-11-06T21:22:38.633Z,7.30
2018-11-06T21:25:08.287Z,7.40
2018-11-06T21:27:37.115Z,7.40
2018-11-06T21:30:08.833Z,7.40
2018-11-06T21:32:37.238Z,7.30
2018-11-06T21:35:06.414Z,7.30
2018-11-06T21:37:35.167Z,7.20
2018-11-06T21:40:03.664Z,7.20
2018-11-06T21:42:32.790Z,7.20
2018-11-06T21:45:01.234Z,7.20
2018-11-06T21:47:29.675Z,7.20
2018-11-06T21:49:58.050Z,7.10
2018-11-06T21:52:26.416Z,7.10
2018-11-06T21:54:54.807Z,7.10
2018-11-06T21:57:23.199Z,7.10
2018-11-06T21:59:51.585Z,7.00
2018-11-06T22:02:19.967Z,7.00
2018-11-06T22:04:48.472Z,7.00
2018-11-06T22:07:16.853Z,7.00
2018-11-06T22:09:45.487Z,7.10
2018-11-06T22:12:14.774Z,7.10
2018-11-06T22:14:43.098Z,7.10
2018-11-06T22:17:12.723Z,7.00
2018-11-06T22:19:41.142Z,6.60
2018-11-06T22:22:09.875Z,6.40
2018-11-06T22:24:38.219Z,6.40
2018-11-06T22:27:06.635Z,6.50
2018-11-06T22:29:34.990Z,6.50
2018-11-06T22:32:03.396Z,6.60
2018-11-06T22:34:31.767Z,6.60
2018-11-06T22:37:00.479Z,6.40
2018-11-06T22:39:28.812Z,6.40
2018-11-06T22:41:57.226Z,6.50
2018-11-06T22:44:25.603Z,6.50
2018-11-06T22:46:53.969Z,6.50
2018-11-06T22:49:22.327Z,6.40
2018-11-06T22:51:51.687Z,6.40
2018-11-06T22:54:20.186Z,6.40
2018-11-06T22:56:48.578Z,6.50
2018-11-06T22:59:17.255Z,6.50
2018-11-06T23:01:45.675Z,6.50
2018-11-06T23:04:14.078Z,6.50
2018-11-06T23:06:42.508Z,6.50
2018-11-06T23:09:11.792Z,6.50
2018-11-06T23:11:41.760Z,6.50
2018-11-06T23:14:10.451Z,6.50
2018-11-06T23:16:38.826Z,6.40
2018-11-06T23:19:07.483Z,6.30
2018-11-06T23:21:35.854Z,6.30
2018-11-06T23:24:04.326Z,6.30
2018-11-06T23:26:32.710Z,6.30
2018-11-06T23:29:01.058Z,6.30
2018-11-06T23:31:29.601Z,6.30
2018-11-06T23:33:58.251Z,6.20
2018-11-06T23:36:26.959Z,6.20
2018-11-06T23:38:55.643Z,6.20
2018-11-06T23:41:24.036Z,6.00
2018-11-06T23:43:52.438Z,6.00
2018-11-06T23:46:21.047Z,6.00
2018-11-06T23:48:50.298Z,6.00
2018-11-06T23:51:18.895Z,6.00
2018-11-06T23:53:47.266Z,6.00
2018-11-06T23:56:15.700Z,6.00
2018-11-06T23:58:44.531Z,6.00
